METAR Data
IDs: Format: Raw Decoded Include TAF

Data at: 1608 UTC 18 Aug 2019

PAVD 181601Z 03008G26KT 350V070 10SM FEW080 SCT120 SCT200 15/M04 A3003 RMK AO2 WSHFT 1546 ACSL SE
PAVD 181556Z 35020G26KT 310V020 10SM FEW080 SCT120 SCT200 15/M04 A3003 RMK AO2 PK WND 32026/1555 SLP187 ACSL SE T01501039
PAVD 181456Z VRB04KT 10SM FEW080 SCT120 SCT200 14/M03 A3005 RMK AO2 SLP196 ACSL OHD T01441028 58008
PAVD 181412Z 05008G19KT 10SM FEW060 SCT100 15/M03 A3007 RMK AO2 ACSL OHD
PAVD 181356Z AUTO 10010G25KT 070V130 10SM BKN080 15/M03 A3006 RMK AO2 PK WND 10040/1322 SLP200 T01501033
PAVD 181256Z AUTO 11019G39KT 10SM CLR 16/M04 A3008 RMK AO2 PK WND 08039/1249 SLP206 T01561039
PAVD 181156Z AUTO 09009G29KT 10SM CLR 16/M04 A3008 RMK AO2 PK WND 07035/1104 SLP204 7//// T01611039 10189 20161 56006
PAVD 181111Z AUTO 09016G35KT 060V130 10SM SQ CLR 17/M03 A3007 RMK AO2 PK WND 07035/1104
PAVD 181056Z AUTO 11009G31KT 050V150 10SM CLR 17/M03 A3008 RMK AO2 PK WND 07041/1005 SLP206 T01671033
PAVD 180956Z AUTO 10015G34KT 10SM CLR 17/M03 A3008 RMK AO2 PK WND 07041/0917 SLP206 T01671033
PAVD 180856Z AUTO 05021G40KT 10SM CLR 17/M04 A3010 RMK AO2 PK WND 09044/0807 SLP211 T01721039 53001
PAVD 180756Z AUTO 14012G34KT 110V180 10SM CLR 18/M04 A3009 RMK AO2 PK WND 11043/0718 SLP209 T01781039 402170122
PAVD 180656Z AUTO 19012G26KT 10SM CLR 18/M04 A3009 RMK AO2 PK WND 06036/0632 SLP208 T01831044
PAVD 180639Z AUTO 11010G36KT 080V150 10SM SQ CLR 18/M04 A3009 RMK AO2 PK WND 06036/0632
PAVD 180628Z AUTO 10017G33KT 050V120 10SM SQ CLR 18/M03 A3009 RMK AO2 PK WND 11036/0611
PAVD 180556Z 11008G25KT 10SM FEW300 19/M03 A3010 RMK AO2 SLP210 T01891033 10217 20189 51015
PAVD 180456Z 28009G19KT 210V320 10SM SCT300 20/M03 A3008 RMK AO2 SLP206 T02001033
PAVD 180356Z 09012G18KT 050V140 10SM SCT300 21/M04 A3007 RMK AO2 PK WND 06038/0257 SLP201 T02061044
PAVD 180256Z 09013G28KT 10SM FEW300 21/M04 A3005 RMK AO2 PK WND 07041/0206 SLP196 T02111039 51003
PAVD 180156Z 09011G38KT 050V140 10SM CLR 21/M04 A3005 RMK AO2 PK WND 08056/0114 SLP195 T02111039
PAVD 180056Z 08034G51KT 10SM CLR 22/M04 A3005 RMK AO2 SLP194 T02171044
PAVD 180042Z 08034G51KT 10SM CLR 21/M04 A3003 RMK AO2
PAVD 180007Z 03015G41KT 340V070 10SM SQ CLR 22/M05 A3005 RMK AO2 PK WND 08041/0001
PAVD 172356Z 04021G34KT 360V090 10SM CLR 22/M05 A3004 RMK AO2 PK WND 04043/2328 WSHFT 2307 SLP193 T02171050 10217 20183 58005
PAVD 172327Z 03015G34KT 300V070 10SM CLR 22/M04 A3006 RMK AO2 PK WND 06040/2310 WSHFT 2307
PAVD 172315Z 07017G40KT 010V110 9SM SQ CLR 21/M03 A3005 RMK AO2 PK WND 06040/2310
PAVD 172256Z 05012G29KT 330V100 10SM CLR 21/M03 A3006 RMK AO2 PK WND 08048/2233 SLP199 T02111028
PAVD 172239Z 04011G48KT 360V080 10SM SQ CLR 21/M02 A3007 RMK AO2 PK WND 08048/2233
PAVD 172156Z 07021G48KT 030V120 10SM SQ CLR 21/M02 A3006 RMK AO2 PK WND 09048/2151 WSHFT 2038 SLP199 T02061022
PAVD 172148Z 11012G45KT 060V210 10SM SQ CLR 21/M02 A3007 RMK AO2 PK WND 10048/2052 WSHFT 2038
PAVD 172058Z 34017G48KT 310V020 10SM CLR 21/M02 A3007 RMK AO2 PK WND 10048/2052 WSHFT 2038
PAVD 172051Z 09019G33KT 10SM SQ FEW180 21/M02 A3006 RMK AO2 PK WND 08043/2008 WSHFT 2036 SLP198 T02061022 51005
PAVD 172050Z 07019G33KT 10SM SQ FEW180 21/M02 A3006 RMK AO2 PK WND 08043/2008 WSHFT 2036
PAVD 172015Z 12013G43KT 070V170 10SM SQ FEW180 20/M02 A3007 RMK AO2 PK WND 08043/2008
PAVD 171956Z 07018G46KT 020V100 10SM FEW180 20/M02 A3006 RMK AO2 PK WND 07046/1947 SLP198 T02001017
PAVD 171856Z 07016G49KT 010V120 10SM FEW120 19/M01 A3005 RMK AO2 PK WND 07049/1848 SLP195 T01941011
PAVD 171756Z 07012G40KT 290V120 10SM SQ SCT080 18/M01 A3004 RMK AO2 PK WND 07050/1716 SLP193 6//// T01831006 10194 20156 53004
PAVD 171725Z 08022G50KT 10SM SCT080 18/00 A3004 RMK AO2 PK WND 07050/1716
PAVD 171656Z VRB06G23KT 10SM SCT080 18/00 A3003 RMK AO2 PK WND 33029/1603 SLP188 T01780000
PAVD 171556Z 22007KT 170V250 10SM BKN080 16/02 A3004 RMK AO2 SLP190 T01610017
PAVD 171456Z 10015G28KT 070V140 10SM BKN085 16/01 A3003 RMK AO2 PK WND 11032/1402 WSHFT 1344 SLP190 6//// T01560006 51028
PAVD 171410Z 09013G32KT 10SM SCT085 16/M01 A3003 RMK AO2 PK WND 11032/1402 WSHFT 1344
PAVD 171356Z AUTO 11017G34KT 10SM FEW085 16/M02 A3003 RMK AO2 PK WND 36057/1319 WSHFT 1327 SLP188 T01611017
PAVD 171347Z AUTO 08020G44KT 10SM CLR 17/M02 A3002 RMK AO2 PK WND 36057/1319 WSHFT 1327
PAVD 171256Z AUTO 36019G38KT 10SM CLR 18/00 A2996 RMK AO2 PK WND 01050/1231 WSHFT 1220 SLP164 P0001 T01780000
PAVD 171240Z AUTO 36032G50KT 9SM CLR 18/01 A2995 RMK AO2 PK WND 01050/1231 WSHFT 1220 P0001
PAVD 171156Z AUTO 08015G24KT 10SM CLR 19/04 A2995 RMK AO2 PK WND 09039/1145 SLP161 60000 T01940044 10200 20117 50004
PAVD 171056Z AUTO 33006KT 10SM OVC110 14/13 A2995 RMK AO2 RAE21 SLP162 P0000 T01440128
PAVD 170956Z AUTO VRB03KT 10SM -RA BKN065 OVC085 13/11 A2994 RMK AO2 RAB35 SLP158 P0000 T01280111
PAVD 170856Z AUTO 00000KT 10SM BKN070 OVC080 13/09 A2994 RMK AO2 SLP157 T01330094 56022
PAVD 170756Z AUTO 00000KT 10SM SCT065 12/09 A2995 RMK AO2 SLP161 T01220094 401940106
PAVD 170656Z AUTO 00000KT 10SM FEW100 12/08 A2998 RMK AO2 SLP171 T01220078
PAVD 170556Z 07006KT 10SM FEW080 FEW100 SCT150 13/07 A3000 RMK AO2 SLP179 T01280067 10194 20128 56013
PAVD 170456Z 09004KT 10SM FEW080 SCT100 SCT150 15/07 A3001 RMK AO2 SLP181 T01500072